createdAt,value
2019-05-07T00:00:22.072Z,12.20
2019-05-07T00:02:52.312Z,12.30
2019-05-07T00:05:22.824Z,12.20
2019-05-07T00:07:52.154Z,12.10
2019-05-07T00:10:21.845Z,12.10
2019-05-07T00:12:52.005Z,12.10
2019-05-07T00:15:22.884Z,12.10
2019-05-07T00:17:52.286Z,12.10
2019-05-07T00:20:23.085Z,12.10
2019-05-07T00:22:53.364Z,12.10
2019-05-07T00:25:22.886Z,12.10
2019-05-07T00:27:52.328Z,12.00
2019-05-07T00:30:22.305Z,12.10
2019-05-07T00:32:53.028Z,12.10
2019-05-07T00:35:25.730Z,12.00
2019-05-07T00:38:04.989Z,11.90
2019-05-07T00:40:38.110Z,11.80
2019-05-07T00:43:08.480Z,11.60
2019-05-07T00:45:56.702Z,11.60
2019-05-07T00:48:24.081Z,11.60
2019-05-07T00:50:54.365Z,11.40
2019-05-07T00:53:23.754Z,11.30
2019-05-07T00:55:52.726Z,11.30
2019-05-07T00:58:25.999Z,11.20
2019-05-07T01:00:53.166Z,11.30
2019-05-07T01:03:22.293Z,11.30
2019-05-07T01:05:52.762Z,11.10
2019-05-07T01:08:22.510Z,11.10
2019-05-07T01:10:52.923Z,11.00
2019-05-07T01:13:23.442Z,11.00
2019-05-07T01:15:53.168Z,11.00
2019-05-07T01:18:23.227Z,11.00
2019-05-07T01:20:53.268Z,11.00
2019-05-07T01:23:22.914Z,11.00
2019-05-07T01:25:52.667Z,11.10
2019-05-07T01:28:22.340Z,11.00
2019-05-07T01:30:52.834Z,11.00
2019-05-07T01:33:26.008Z,10.90
2019-05-07T01:36:13.315Z,10.80
2019-05-07T01:38:42.741Z,10.90
2019-05-07T01:41:12.504Z,11.00
2019-05-07T01:43:42.900Z,11.10
2019-05-07T01:46:12.419Z,11.20
2019-05-07T01:48:42.960Z,11.20
2019-05-07T01:51:12.888Z,11.30
2019-05-07T01:53:43.021Z,11.40
2019-05-07T01:56:12.430Z,11.60
2019-05-07T01:58:42.521Z,11.60
2019-05-07T02:01:13.057Z,11.60
2019-05-07T02:03:46.230Z,11.70
2019-05-07T02:06:19.225Z,11.70
2019-05-07T02:09:10.237Z,11.70
2019-05-07T02:11:42.382Z,11.60
2019-05-07T02:14:11.149Z,11.50
2019-05-07T02:16:41.752Z,11.30
2019-05-07T02:19:10.098Z,11.30
2019-05-07T02:21:38.744Z,11.40
2019-05-07T02:24:07.490Z,11.50
2019-05-07T02:26:36.217Z,11.40
2019-05-07T02:29:05.010Z,11.50
2019-05-07T02:31:34.027Z,11.40
2019-05-07T02:34:03.002Z,11.40
2019-05-07T02:36:33.948Z,11.40
2019-05-07T02:39:19.579Z,11.40
2019-05-07T02:41:48.361Z,11.30
2019-05-07T02:44:17.087Z,11.30
2019-05-07T02:46:47.384Z,11.40
2019-05-07T02:49:26.632Z,11.30
2019-05-07T02:51:56.994Z,11.30
2019-05-07T02:54:32.604Z,11.30
2019-05-07T02:57:03.241Z,11.20
2019-05-07T02:59:33.367Z,11.20
2019-05-07T03:02:03.625Z,11.00
2019-05-07T03:04:33.331Z,11.10
2019-05-07T03:07:03.829Z,11.00
2019-05-07T03:09:32.872Z,11.00
2019-05-07T03:12:03.942Z,10.90
2019-05-07T03:14:32.456Z,10.80
2019-05-07T03:17:03.017Z,10.80
2019-05-07T03:19:33.206Z,10.80
2019-05-07T03:22:03.947Z,10.70
2019-05-07T03:24:34.488Z,10.60
2019-05-07T03:27:03.535Z,10.60
2019-05-07T03:29:33.261Z,10.50
2019-05-07T03:32:20.281Z,10.50
2019-05-07T03:35:09.826Z,10.40
2019-05-07T03:37:38.865Z,10.40
2019-05-07T03:40:08.291Z,10.40
2019-05-07T03:42:36.993Z,10.30
2019-05-07T03:45:09.324Z,10.20
2019-05-07T03:47:39.650Z,10.20
2019-05-07T03:50:14.172Z,10.20
2019-05-07T03:52:42.901Z,10.40
2019-05-07T03:55:14.342Z,10.30
2019-05-07T03:57:43.684Z,10.30
2019-05-07T04:00:13.282Z,10.30
2019-05-07T04:02:43.708Z,10.30
2019-05-07T04:05:13.994Z,10.20
2019-05-07T04:07:43.435Z,10.10
2019-05-07T04:10:14.741Z,10.10
2019-05-07T04:12:44.169Z,10.20
2019-05-07T04:15:14.702Z,10.20
2019-05-07T04:17:44.002Z,10.30
2019-05-07T04:20:13.685Z,10.20
2019-05-07T04:22:43.318Z,10.20
2019-05-07T04:25:24.077Z,10.20
2019-05-07T04:28:03.453Z,10.30
2019-05-07T04:30:33.067Z,10.30
2019-05-07T04:33:03.698Z,10.30
2019-05-07T04:35:36.839Z,10.20
2019-05-07T04:38:06.866Z,10.20
2019-05-07T04:40:35.965Z,10.20
2019-05-07T04:43:04.694Z,10.40
2019-05-07T04:45:34.013Z,10.50
2019-05-07T04:48:03.253Z,10.60
2019-05-07T04:50:42.628Z,10.60
2019-05-07T04:53:04.158Z,10.60
2019-05-07T04:55:36.809Z,10.70
2019-05-07T04:58:08.840Z,10.80
2019-05-07T05:00:35.909Z,10.90
2019-05-07T05:03:06.555Z,10.90
2019-05-07T05:05:35.335Z,11.00
2019-05-07T05:08:04.132Z,11.10
2019-05-07T05:10:33.653Z,11.10
2019-05-07T05:13:03.340Z,11.20
2019-05-07T05:15:32.219Z,11.20
2019-05-07T05:18:02.675Z,11.20
2019-05-07T05:20:33.653Z,11.40
2019-05-07T05:23:15.762Z,11.50
2019-05-07T05:25:44.857Z,11.60
2019-05-07T05:28:14.146Z,11.60
2019-05-07T05:30:54.927Z,11.80
2019-05-07T05:33:23.681Z,11.90
2019-05-07T05:35:52.643Z,12.00
2019-05-07T05:38:22.182Z,12.10
2019-05-07T05:40:52.043Z,12.20
2019-05-07T05:43:32.068Z,12.30
2019-05-07T05:46:02.869Z,12.40
2019-05-07T05:48:33.422Z,12.50
2019-05-07T05:51:03.629Z,12.60
2019-05-07T05:53:43.499Z,12.70
2019-05-07T05:56:14.944Z,12.70
2019-05-07T05:58:45.254Z,12.80
2019-05-07T06:01:15.519Z,12.80
2019-05-07T06:03:45.814Z,12.80
2019-05-07T06:06:21.994Z,12.90
2019-05-07T06:08:52.614Z,13.00
2019-05-07T06:11:28.714Z,13.10
2019-05-07T06:14:07.822Z,13.20
2019-05-07T06:16:38.197Z,13.40
2019-05-07T06:19:08.574Z,13.50
2019-05-07T06:21:56.347Z,13.60
2019-05-07T06:24:35.437Z,13.70
2019-05-07T06:27:04.547Z,13.70
2019-05-07T06:29:33.194Z,13.80
2019-05-07T06:32:03.626Z,13.80
2019-05-07T06:34:34.194Z,13.90
2019-05-07T06:37:02.669Z,13.90
2019-05-07T06:39:38.914Z,13.90
2019-05-07T06:42:25.499Z,14.00
2019-05-07T06:45:13.775Z,14.00
2019-05-07T06:47:42.566Z,14.00
2019-05-07T06:50:12.527Z,14.00
2019-05-07T06:52:42.588Z,14.10
2019-05-07T06:55:12.177Z,14.20
2019-05-07T06:57:42.589Z,14.30
2019-05-07T07:00:25.144Z,14.30
2019-05-07T07:02:58.233Z,14.40
2019-05-07T07:05:34.302Z,14.40
2019-05-07T07:08:07.718Z,14.50
2019-05-07T07:10:54.289Z,14.50
2019-05-07T07:13:24.661Z,14.60
2019-05-07T07:15:53.460Z,14.70
2019-05-07T07:18:23.055Z,14.70
2019-05-07T07:20:52.485Z,14.80
2019-05-07T07:23:22.648Z,14.90
2019-05-07T07:25:52.230Z,14.90
2019-05-07T07:28:21.896Z,14.90
2019-05-07T07:30:52.733Z,15.00
2019-05-07T07:33:23.075Z,15.00
2019-05-07T07:35:52.151Z,15.00
2019-05-07T07:38:33.034Z,15.20
2019-05-07T07:41:05.485Z,15.30
2019-05-07T07:43:34.327Z,15.50
2019-05-07T07:46:03.125Z,15.60
2019-05-07T07:48:32.211Z,15.60
2019-05-07T07:51:03.087Z,15.60
2019-05-07T07:53:34.843Z,15.50
2019-05-07T07:56:19.931Z,15.50
2019-05-07T07:58:52.286Z,15.60
2019-05-07T08:01:24.982Z,15.70
2019-05-07T08:03:53.630Z,15.60
2019-05-07T08:06:22.610Z,15.70
2019-05-07T08:08:52.914Z,15.70
2019-05-07T08:11:22.043Z,15.80
2019-05-07T08:13:52.759Z,15.90
2019-05-07T08:16:22.253Z,16.00
2019-05-07T08:18:52.133Z,16.10
2019-05-07T08:21:22.723Z,16.10
2019-05-07T08:23:52.898Z,16.20
2019-05-07T08:26:22.038Z,16.30
2019-05-07T08:28:52.404Z,16.50
2019-05-07T08:31:22.998Z,16.40
2019-05-07T08:34:09.938Z,16.30
2019-05-07T08:36:38.597Z,16.20
2019-05-07T08:39:07.445Z,16.20
2019-05-07T08:41:36.242Z,16.20
2019-05-07T08:44:15.403Z,16.20
2019-05-07T08:46:45.247Z,16.50
2019-05-07T08:49:15.710Z,16.50
2019-05-07T08:51:44.407Z,16.70
2019-05-07T08:54:13.274Z,16.70
2019-05-07T08:56:42.554Z,16.80
2019-05-07T08:59:12.424Z,17.00
2019-05-07T09:01:43.296Z,17.00
2019-05-07T09:04:13.464Z,17.10
2019-05-07T09:06:43.085Z,17.20
2019-05-07T09:09:14.980Z,17.20
2019-05-07T09:11:43.765Z,17.40
2019-05-07T09:14:12.781Z,17.40
2019-05-07T09:16:42.742Z,17.70
2019-05-07T09:19:12.909Z,17.70
2019-05-07T09:21:42.835Z,17.80
2019-05-07T09:24:12.382Z,18.00
2019-05-07T09:26:45.839Z,18.10
2019-05-07T09:29:16.266Z,18.50
2019-05-07T09:31:49.506Z,18.60
2019-05-07T09:34:22.156Z,18.60
2019-05-07T09:36:54.455Z,18.70
2019-05-07T09:39:23.249Z,19.00
2019-05-07T09:41:52.671Z,19.10
2019-05-07T09:44:22.138Z,19.10
2019-05-07T09:46:52.045Z,19.20
2019-05-07T09:49:22.244Z,19.20
2019-05-07T09:51:51.953Z,19.20
2019-05-07T09:54:22.974Z,19.20
2019-05-07T09:56:52.575Z,18.80
2019-05-07T09:59:21.898Z,18.70
2019-05-07T10:01:50.789Z,18.80
2019-05-07T10:04:19.571Z,18.80
2019-05-07T10:06:48.222Z,19.00
2019-05-07T10:09:16.949Z,19.20
2019-05-07T10:12:03.473Z,20.00
2019-05-07T10:14:33.123Z,20.50
2019-05-07T10:17:09.426Z,20.90
2019-05-07T10:19:38.230Z,21.20
2019-05-07T10:22:07.012Z,21.60
2019-05-07T10:24:35.739Z,22.10
2019-05-07T10:27:05.442Z,22.20
2019-05-07T10:29:34.189Z,21.60
2019-05-07T10:32:03.070Z,21.10
2019-05-07T10:34:31.795Z,20.90
2019-05-07T10:37:02.584Z,21.10
2019-05-07T10:39:32.527Z,21.60
2019-05-07T10:42:01.849Z,21.90
2019-05-07T10:44:38.027Z,21.80
2019-05-07T10:47:24.913Z,22.50
2019-05-07T10:50:11.914Z,22.90
2019-05-07T10:52:42.544Z,23.20
2019-05-07T10:55:12.115Z,23.70
2019-05-07T10:57:43.993Z,23.80
2019-05-07T11:00:16.818Z,23.60
2019-05-07T11:02:45.461Z,22.80
2019-05-07T11:05:15.678Z,22.80
2019-05-07T11:07:44.405Z,22.50
2019-05-07T11:10:13.491Z,22.20
2019-05-07T11:12:42.568Z,22.50
2019-05-07T11:15:12.652Z,23.10
2019-05-07T11:17:45.652Z,23.00
2019-05-07T11:20:15.504Z,22.70
2019-05-07T11:22:44.165Z,22.90
2019-05-07T11:25:12.950Z,22.60
2019-05-07T11:27:42.153Z,22.70
2019-05-07T11:30:14.374Z,22.40
2019-05-07T11:32:43.721Z,22.30
2019-05-07T11:35:14.679Z,22.50
2019-05-07T11:37:44.307Z,22.20
2019-05-07T11:40:14.602Z,22.50
2019-05-07T11:42:53.686Z,23.00
2019-05-07T11:45:24.034Z,23.10
2019-05-07T11:47:52.747Z,23.40
2019-05-07T11:50:34.950Z,23.30
2019-05-07T11:53:08.337Z,22.80
2019-05-07T11:55:37.054Z,22.20
2019-05-07T11:58:05.782Z,22.20
2019-05-07T12:00:36.321Z,22.60
2019-05-07T12:03:05.386Z,22.70
2019-05-07T12:05:34.153Z,23.00
2019-05-07T12:08:02.943Z,22.90
2019-05-07T12:10:32.733Z,23.10
2019-05-07T12:13:02.453Z,23.40
2019-05-07T12:15:32.444Z,23.50
2019-05-07T12:18:02.980Z,23.30
2019-05-07T12:20:32.419Z,23.20
2019-05-07T12:23:02.878Z,22.90
2019-05-07T12:25:32.180Z,23.00
2019-05-07T12:28:02.385Z,22.70
2019-05-07T12:30:51.746Z,23.30
2019-05-07T12:33:24.754Z,24.00
2019-05-07T12:35:53.559Z,24.70
2019-05-07T12:38:22.292Z,25.00
2019-05-07T12:40:52.392Z,25.30
2019-05-07T12:43:21.366Z,25.90
2019-05-07T12:45:52.324Z,25.60
2019-05-07T12:48:21.778Z,25.50
2019-05-07T12:50:52.280Z,25.00
2019-05-07T12:53:22.709Z,24.90
2019-05-07T12:55:52.995Z,25.10
2019-05-07T12:58:21.869Z,25.20
2019-05-07T13:00:57.863Z,25.10
2019-05-07T13:03:40.162Z,25.30
2019-05-07T13:06:08.875Z,25.80
2019-05-07T13:08:37.536Z,26.40
2019-05-07T13:11:06.341Z,26.60
2019-05-07T13:13:34.997Z,26.30
2019-05-07T13:16:03.714Z,26.00
2019-05-07T13:18:32.454Z,26.50
2019-05-07T13:21:18.953Z,26.80
2019-05-07T13:24:07.853Z,27.10
2019-05-07T13:26:36.502Z,27.40
2019-05-07T13:29:05.232Z,28.40
2019-05-07T13:31:35.782Z,28.10
2019-05-07T13:34:04.819Z,28.30
2019-05-07T13:36:35.258Z,27.70
2019-05-07T13:39:07.514Z,28.20
2019-05-07T13:41:37.855Z,27.80
2019-05-07T13:44:08.306Z,27.90
2019-05-07T13:46:38.726Z,28.80
2019-05-07T13:49:07.827Z,28.10
2019-05-07T13:51:36.558Z,28.00
2019-05-07T13:54:05.641Z,28.60
2019-05-07T13:56:34.386Z,29.90
2019-05-07T13:59:05.084Z,30.20
2019-05-07T14:01:50.492Z,29.50
2019-05-07T14:04:19.289Z,29.30
2019-05-07T14:06:47.938Z,29.60
2019-05-07T14:09:18.390Z,29.40
2019-05-07T14:11:47.125Z,29.20
2019-05-07T14:14:15.863Z,28.30
2019-05-07T14:16:45.064Z,27.80
2019-05-07T14:19:14.079Z,27.40
2019-05-07T14:21:42.871Z,26.90
2019-05-07T14:24:14.545Z,27.80
2019-05-07T14:26:42.346Z,28.30
2019-05-07T14:29:11.267Z,28.10
2019-05-07T14:31:39.988Z,28.80
2019-05-07T14:34:15.887Z,28.40
2019-05-07T14:36:49.215Z,28.60
2019-05-07T14:39:17.869Z,28.50
2019-05-07T14:41:48.229Z,28.80
2019-05-07T14:44:18.334Z,30.20
2019-05-07T14:46:51.561Z,30.60
2019-05-07T14:49:17.434Z,30.70
2019-05-07T14:51:46.233Z,29.90
2019-05-07T14:54:14.962Z,29.60
2019-05-07T14:56:43.961Z,29.80
2019-05-07T14:59:12.899Z,30.10
2019-05-07T15:01:43.000Z,29.60
2019-05-07T15:04:12.900Z,28.70
2019-05-07T15:06:41.879Z,28.70
2019-05-07T15:09:12.155Z,29.00
2019-05-07T15:11:42.483Z,28.80
2019-05-07T15:14:12.159Z,29.10
2019-05-07T15:16:42.729Z,29.50
2019-05-07T15:19:12.514Z,29.10
2019-05-07T15:21:42.627Z,28.40
2019-05-07T15:24:14.473Z,28.70
2019-05-07T15:26:43.291Z,29.40
2019-05-07T15:29:13.290Z,29.20
2019-05-07T15:31:55.594Z,29.40
2019-05-07T15:34:24.579Z,28.40
2019-05-07T15:36:53.368Z,28.30
2019-05-07T15:39:22.318Z,29.00
2019-05-07T15:41:51.778Z,29.10
2019-05-07T15:44:20.672Z,28.90
2019-05-07T15:46:49.390Z,28.50
2019-05-07T15:49:18.128Z,28.20
2019-05-07T15:51:46.785Z,28.30
2019-05-07T15:54:15.427Z,28.50
2019-05-07T15:56:44.081Z,28.90
2019-05-07T15:59:14.365Z,28.90
2019-05-07T16:01:43.036Z,29.00
2019-05-07T16:04:21.567Z,29.30
2019-05-07T16:06:42.608Z,28.00
2019-05-07T16:09:12.983Z,27.30
2019-05-07T16:11:43.114Z,26.70
2019-05-07T16:14:23.698Z,26.20
2019-05-07T16:16:54.813Z,26.60
2019-05-07T16:19:25.179Z,28.00
2019-05-07T16:21:53.975Z,28.20
2019-05-07T16:24:22.674Z,28.00
2019-05-07T16:26:52.372Z,27.80
2019-05-07T16:29:22.531Z,28.50
2019-05-07T16:31:52.122Z,29.00
2019-05-07T16:34:21.985Z,29.20
2019-05-07T16:36:51.369Z,28.40
2019-05-07T16:39:22.076Z,28.20
2019-05-07T16:42:01.959Z,28.30
2019-05-07T16:44:30.705Z,28.20
2019-05-07T16:46:59.438Z,27.20
2019-05-07T16:49:28.163Z,27.10
2019-05-07T16:51:56.818Z,27.40
2019-05-07T16:54:25.525Z,26.90
2019-05-07T16:57:12.290Z,26.90
2019-05-07T16:59:42.731Z,27.00
2019-05-07T17:02:25.215Z,26.60
2019-05-07T17:05:07.458Z,26.30
2019-05-07T17:07:37.793Z,24.90
2019-05-07T17:10:08.358Z,23.90
2019-05-07T17:12:38.725Z,23.20
2019-05-07T17:15:08.714Z,22.90
2019-05-07T17:17:37.441Z,22.70
2019-05-07T17:20:07.540Z,22.70
2019-05-07T17:22:36.259Z,22.70
2019-05-07T17:25:26.034Z,22.70
2019-05-07T17:27:54.758Z,22.60
2019-05-07T17:30:23.482Z,22.40
2019-05-07T17:32:52.570Z,22.30
2019-05-07T17:35:22.395Z,22.00
2019-05-07T17:37:51.829Z,21.90
2019-05-07T17:40:22.609Z,21.50
2019-05-07T17:42:52.522Z,21.20
2019-05-07T17:45:22.755Z,21.10
2019-05-07T17:47:52.307Z,21.00
2019-05-07T17:50:42.684Z,21.10
2019-05-07T17:53:11.974Z,21.10
2019-05-07T17:55:42.301Z,20.70
2019-05-07T17:58:12.870Z,20.60
2019-05-07T18:00:43.940Z,20.50
2019-05-07T18:03:32.282Z,20.30
2019-05-07T18:06:02.221Z,20.10
2019-05-07T18:08:32.517Z,19.60
2019-05-07T18:11:02.495Z,19.20
2019-05-07T18:13:32.420Z,18.80
2019-05-07T18:16:03.181Z,18.60
2019-05-07T18:18:32.789Z,18.50
2019-05-07T18:21:05.123Z,18.30
2019-05-07T18:23:33.697Z,18.20
2019-05-07T18:26:02.578Z,18.10
2019-05-07T18:28:32.568Z,18.20
2019-05-07T18:31:02.045Z,18.20
2019-05-07T18:33:41.854Z,18.20
2019-05-07T18:36:12.177Z,18.10
2019-05-07T18:38:42.395Z,17.90
2019-05-07T18:41:12.134Z,17.70
2019-05-07T18:43:42.200Z,17.60
2019-05-07T18:46:12.869Z,17.60
2019-05-07T18:48:42.598Z,17.60
2019-05-07T18:51:12.139Z,17.50
2019-05-07T18:53:42.547Z,17.40
2019-05-07T18:56:12.687Z,17.20
2019-05-07T18:58:42.576Z,17.10
2019-05-07T19:01:13.342Z,17.00
2019-05-07T19:03:42.185Z,16.80
2019-05-07T19:06:14.297Z,16.80
2019-05-07T19:08:42.957Z,16.70
2019-05-07T19:11:12.378Z,16.60
2019-05-07T19:13:42.051Z,16.60
2019-05-07T19:16:12.392Z,16.50
2019-05-07T19:18:43.112Z,16.50
2019-05-07T19:21:12.131Z,16.40
2019-05-07T19:23:42.415Z,16.60
2019-05-07T19:26:13.107Z,16.60
2019-05-07T19:28:41.995Z,16.40
2019-05-07T19:31:13.267Z,16.30
2019-05-07T19:33:42.072Z,16.20
2019-05-07T19:36:11.088Z,16.00
2019-05-07T19:38:41.935Z,15.90
2019-05-07T19:41:12.127Z,16.00
2019-05-07T19:43:41.973Z,16.00
2019-05-07T19:46:12.362Z,15.90
2019-05-07T19:48:41.310Z,15.80
2019-05-07T19:51:12.042Z,15.80
2019-05-07T19:53:41.932Z,15.80
2019-05-07T19:56:12.201Z,15.70
2019-05-07T19:58:41.946Z,15.70
2019-05-07T20:01:12.219Z,15.70
2019-05-07T20:03:43.312Z,15.70
2019-05-07T20:06:12.867Z,15.60
2019-05-07T20:08:43.615Z,15.60
2019-05-07T20:11:32.493Z,15.60
2019-05-07T20:14:01.991Z,15.50
2019-05-07T20:16:32.911Z,15.40
2019-05-07T20:19:01.280Z,15.30
2019-05-07T20:21:32.137Z,15.30
2019-05-07T20:24:01.896Z,15.20
2019-05-07T20:26:32.649Z,15.30
2019-05-07T20:29:02.869Z,15.30
2019-05-07T20:31:33.512Z,15.40
2019-05-07T20:34:02.361Z,15.50
2019-05-07T20:36:32.708Z,15.40
2019-05-07T20:39:02.338Z,15.30
2019-05-07T20:41:32.523Z,15.30
2019-05-07T20:44:02.789Z,15.20
2019-05-07T20:46:32.716Z,15.20
2019-05-07T20:49:02.773Z,15.20
2019-05-07T20:51:32.644Z,15.20
2019-05-07T20:54:08.841Z,15.10
2019-05-07T20:56:39.282Z,15.00
2019-05-07T20:59:07.998Z,15.00
2019-05-07T21:01:36.651Z,15.00
2019-05-07T21:04:05.476Z,15.20
2019-05-07T21:06:34.179Z,15.20
2019-05-07T21:09:04.178Z,15.00
2019-05-07T21:11:33.261Z,15.00
2019-05-07T21:14:03.203Z,14.90
2019-05-07T21:16:32.983Z,14.80
2019-05-07T21:19:02.130Z,14.70
2019-05-07T21:21:32.760Z,14.60
2019-05-07T21:24:02.108Z,14.60
2019-05-07T21:26:32.670Z,14.50
2019-05-07T21:29:03.002Z,14.50
2019-05-07T21:31:34.405Z,14.50
2019-05-07T21:34:03.222Z,14.60
2019-05-07T21:36:32.497Z,14.60
2019-05-07T21:39:02.238Z,14.50
2019-05-07T21:41:33.258Z,14.60
2019-05-07T21:44:01.382Z,14.60
2019-05-07T21:46:30.048Z,14.50
2019-05-07T21:48:58.753Z,14.50
2019-05-07T21:51:27.418Z,14.60
2019-05-07T21:54:03.751Z,14.50
2019-05-07T21:56:39.701Z,14.40
2019-05-07T21:59:12.463Z,14.40
2019-05-07T22:01:47.770Z,14.20
2019-05-07T22:04:16.494Z,14.10
2019-05-07T22:06:45.605Z,14.00
2019-05-07T22:09:16.403Z,13.90
2019-05-07T22:11:45.059Z,13.90
2019-05-07T22:14:13.783Z,13.90
2019-05-07T22:16:42.718Z,13.80
2019-05-07T22:19:12.101Z,13.80
2019-05-07T22:21:43.280Z,13.80
2019-05-07T22:24:14.671Z,13.80
2019-05-07T22:26:42.174Z,13.90
2019-05-07T22:29:12.585Z,13.90
2019-05-07T22:31:45.690Z,13.80
2019-05-07T22:34:27.803Z,13.80
2019-05-07T22:36:56.467Z,13.80
2019-05-07T22:39:25.370Z,13.80
2019-05-07T22:41:54.026Z,13.70
2019-05-07T22:44:25.852Z,13.70
2019-05-07T22:46:52.983Z,13.70
2019-05-07T22:49:22.906Z,13.70
2019-05-07T22:51:52.559Z,13.80
2019-05-07T22:54:22.660Z,13.80
2019-05-07T22:56:59.074Z,13.80
2019-05-07T22:59:27.733Z,13.80
2019-05-07T23:01:56.370Z,13.70
2019-05-07T23:04:25.038Z,13.70
2019-05-07T23:06:53.681Z,13.70
2019-05-07T23:09:22.586Z,13.80
2019-05-07T23:11:52.667Z,13.80
2019-05-07T23:14:22.590Z,13.80
2019-05-07T23:16:52.647Z,13.90
2019-05-07T23:19:22.304Z,14.00
2019-05-07T23:21:52.124Z,14.00
2019-05-07T23:24:22.615Z,14.00
2019-05-07T23:26:53.715Z,14.00
2019-05-07T23:29:22.658Z,13.90
2019-05-07T23:31:52.844Z,13.80
2019-05-07T23:34:22.211Z,13.80
2019-05-07T23:36:53.319Z,13.70
2019-05-07T23:39:23.072Z,13.80
2019-05-07T23:41:59.201Z,13.80
2019-05-07T23:44:27.882Z,13.70
2019-05-07T23:46:56.605Z,13.60
2019-05-07T23:49:25.321Z,13.60
2019-05-07T23:51:54.053Z,13.60
2019-05-07T23:54:23.279Z,13.50
2019-05-07T23:57:05.444Z,13.50
2019-05-07T23:59:22.623Z,13.60
